Berlin Township, Michigan
Current Conditions -  °F | °C
As of 9:14 PM on Friday 19 Dec 2014 (Local Time) from KD95 Reporting Station
Clear Clear  
Wind Chill: 19°   Ceiling: Unl
Heat Index: 19°   Visibility: 10mi
Dew Point: 18°   Wind: 0mph
Humidity: 94%   Direction: NA
Pressure: 30.3"   Gusts: NA
Location:  42.9384°N, 82.9255°W
Report Text: KD95 200214Z AUTO 00000KT 10SM CLR M07/M08 A3030 RMK AO2 T10721080
Loading
Personal Weather Stations






























Interactive Weather Map New forecast layout! Learn more

10-Day Weather Forecast

Advertisements
Track Severe Weather on mobile